Terminal Aerodrome Forecast
Issued by NWS Wichita, KS

Home | Current Version | Previous Version | Graphics & Text | Print | Product List | Glossary On
Versions: 1 2 3 4 5 6 7 8 9 10 11 12 13 14 15 16 17 18 19 20
330
FTUS43 KICT 171221 AAA
TAFICT
TAF AMD
KICT 171221Z 1712/1812 18017G26KT 6SM BR OVC008
      TEMPO 1712/1714 4SM BR BKN004
     FM171600 20015G23KT P6SM BKN020
     FM171800 20016G24KT P6SM SCT150
     FM180000 19011KT P6SM FEW250
     FM180300 22006KT P6SM FEW250
     FM180700 34026G35KT P6SM BKN030=

USA.gov is the U.S. government's official web portal to all federal, state and local government web resources and services.